Time;durP1;ratioP1;P1;durP2;ratioP2;P2;SDS_P1;SDS_P2;PMS_P1;PMS_P2;Temp;Humidity;BMP_temperature;BMP_pressure;BME280_temperature;BME280_humidity;BME280_pressure;Samples;Min_cycle;Max_cycle;Signal;HPM_P1;HPM_P2
2022/09/22 00:00:35;;;;;;;9.93;4.95;;;7.20;59.40;;;;;;5071700;28;20422;-54
2022/09/22 00:03:01;;;;;;;8.83;4.40;;;7.60;74.20;;;;;;5071116;28;20490;-55
2022/09/22 00:05:27;;;;;;;11.05;4.65;;;7.60;92.10;;;;;;5070751;28;20484;-55
2022/09/22 00:07:53;;;;;;;9.70;5.20;;;7.60;83.40;;;;;;5070909;28;20390;-55
2022/09/22 00:10:20;;;;;;;10.55;4.90;;;7.60;69.80;;;;;;5071603;28;20457;-55
2022/09/22 00:12:49;;;;;;;12.75;4.93;;;7.60;57.40;;;;;;5071735;28;20376;-55
2022/09/22 00:15:16;;;;;;;10.60;4.70;;;7.60;76.00;;;;;;5071252;28;20941;-55
2022/09/22 00:17:42;;;;;;;10.50;5.03;;;7.60;93.20;;;;;;5071666;28;20833;-54
2022/09/22 00:20:12;;;;;;;9.95;4.80;;;7.60;89.70;;;;;;5070874;28;20435;-55
2022/09/22 00:22:38;;;;;;;10.70;5.23;;;8.40;57.30;;;;;;5070978;28;20380;-54
2022/09/22 00:25:04;;;;;;;12.20;5.50;;;7.60;37.00;;;;;;5071048;28;20376;-54
2022/09/22 00:27:30;;;;;;;11.23;5.30;;;7.60;45.20;;;;;;5071538;28;20379;-55
2022/09/22 00:29:56;;;;;;;11.13;4.80;;;7.60;46.90;;;;;;5070486;28;20434;-55
2022/09/22 00:32:22;;;;;;;10.80;5.35;;;7.60;19.60;;;;;;5071300;28;20380;-54
2022/09/22 00:34:47;;;;;;;12.70;5.03;;;7.50;38.10;;;;;;5071264;28;20376;-54
2022/09/22 00:37:13;;;;;;;10.82;5.68;;;7.50;46.10;;;;;;5070724;28;20427;-54
2022/09/22 00:39:38;;;;;;;10.10;4.90;;;7.40;55.50;;;;;;5070814;28;20382;-54
2022/09/22 00:42:04;;;;;;;10.70;5.30;;;7.30;76.60;;;;;;5070404;28;20383;-54
2022/09/22 00:44:37;;;;;;;10.63;5.80;;;7.30;85.00;;;;;;5071232;28;20433;-54
2022/09/22 00:47:06;;;;;;;9.73;5.15;;;7.30;97.90;;;;;;5070345;28;20411;-54
2022/09/22 00:49:48;;;;;;;9.45;5.00;;;7.40;53.60;;;;;;5070959;28;20395;-55
2022/09/22 00:52:21;;;;;;;13.55;5.45;;;7.30;49.20;;;;;;5069346;28;20449;-55
2022/09/22 00:54:48;;;;;;;11.38;5.00;;;7.20;70.20;;;;;;5070993;28;20372;-55
2022/09/22 00:57:21;;;;;;;11.68;5.68;;;7.10;97.50;;;;;;5070289;28;20380;-54
2022/09/22 00:59:50;;;;;;;9.60;5.30;;;7.00;99.90;;;;;;5070532;28;20746;-54
2022/09/22 01:02:15;;;;;;;12.00;5.67;;;7.20;99.90;;;;;;5070528;28;20376;-54
2022/09/22 01:04:41;;;;;;;9.68;5.03;;;6.90;99.90;;;;;;5070715;28;20780;-54
2022/09/22 01:07:08;;;;;;;9.90;5.15;;;6.90;99.90;;;;;;5070026;28;20391;-54
2022/09/22 01:09:34;;;;;;;10.53;5.00;;;7.40;99.90;;;;;;5071061;28;20391;-54
2022/09/22 01:12:01;;;;;;;9.68;5.10;;;6.90;99.90;;;;;;5069713;28;20477;-54
2022/09/22 01:14:49;;;;;;;10.68;4.88;;;6.90;99.90;;;;;;5070718;28;20433;-54
2022/09/22 01:17:56;;;;;;;10.45;5.43;;;6.80;99.90;;;;;;5070040;28;20386;-54
2022/09/22 01:21:01;;;;;;;10.45;5.43;;;6.70;99.90;;;;;;5069211;28;20403;-55
2022/09/22 01:23:51;;;;;;;9.95;5.55;;;6.80;99.90;;;;;;5070219;28;20387;-55
2022/09/22 01:26:34;;;;;;;10.20;5.15;;;6.80;99.90;;;;;;5069908;28;20383;-54
2022/09/22 01:29:36;;;;;;;10.82;5.28;;;7.80;99.90;;;;;;5069280;28;20416;-54
2022/09/22 01:32:10;;;;;;;10.38;5.32;;;6.80;99.90;;;;;;5069882;28;20912;-54
2022/09/22 01:34:57;;;;;;;13.63;6.10;;;6.60;99.90;;;;;;5069462;28;20387;-54
2022/09/22 01:37:33;;;;;;;12.07;5.70;;;6.80;99.90;;;;;;5069689;28;20379;-54
2022/09/22 01:40:16;;;;;;;12.13;5.95;;;6.70;99.90;;;;;;5068966;28;20487;-54
2022/09/22 01:42:50;;;;;;;11.43;5.93;;;6.60;99.90;;;;;;5064751;28;20404;-55
2022/09/22 01:45:21;;;;;;;10.73;5.70;;;6.70;99.90;;;;;;5062153;28;20414;-54
2022/09/22 01:47:56;;;;;;;11.80;5.77;;;6.70;99.90;;;;;;5069848;28;20854;-54
2022/09/22 01:50:28;;;;;;;10.93;5.90;;;7.60;99.90;;;;;;5069737;28;20457;-54
2022/09/22 01:52:57;;;;;;;12.18;6.28;;;6.80;99.90;;;;;;5068793;28;20727;-55
2022/09/22 01:55:34;;;;;;;12.07;6.10;;;6.60;99.90;;;;;;5070267;28;20395;-55
2022/09/22 01:58:10;;;;;;;10.85;5.60;;;7.00;99.90;;;;;;5069022;28;20724;-55
2022/09/22 02:00:39;;;;;;;13.60;6.27;;;6.90;99.90;;;;;;5069801;28;20876;-55
2022/09/22 02:03:20;;;;;;;10.48;5.55;;;6.70;99.90;;;;;;5068940;28;20895;-54
2022/09/22 02:05:56;;;;;;;10.00;5.13;;;6.90;99.90;;;;;;5069784;28;20539;-55
2022/09/22 02:08:36;;;;;;;10.02;5.18;;;6.80;99.90;;;;;;5069802;28;20411;-55
2022/09/22 02:11:08;;;;;;;11.20;5.50;;;6.70;99.90;;;;;;5068785;28;20420;-55
2022/09/22 02:13:35;;;;;;;11.07;5.40;;;6.60;99.90;;;;;;5069557;28;20452;-55
2022/09/22 02:16:02;;;;;;;10.85;5.38;;;7.50;99.90;;;;;;5068736;28;20785;-55
2022/09/22 02:18:52;;;;;;;10.18;5.30;;;6.60;99.90;;;;;;5069348;28;20376;-55
2022/09/22 02:21:20;;;;;;;10.63;5.10;;;6.50;99.90;;;;;;5069260;28;20384;-54
2022/09/22 02:23:47;;;;;;;11.30;5.55;;;6.50;99.90;;;;;;5069839;28;20455;-54
2022/09/22 02:26:22;;;;;;;9.85;5.40;;;6.40;99.90;;;;;;5068878;28;20409;-54
2022/09/22 02:28:53;;;;;;;11.10;5.65;;;6.30;99.90;;;;;;5068975;28;20386;-55
2022/09/22 02:31:23;;;;;;;11.90;5.95;;;5.90;99.90;;;;;;5068721;28;21000;-55
2022/09/22 02:33:50;;;;;;;13.65;5.00;;;6.30;99.90;;;;;;5069329;28;20431;-54
2022/09/22 02:36:24;;;;;;;9.70;5.10;;;6.30;99.90;;;;;;5068917;28;20376;-55
2022/09/22 02:39:00;;;;;;;14.75;5.07;;;6.20;99.90;;;;;;5060605;28;20896;-55
2022/09/22 02:41:44;;;;;;;12.55;5.45;;;6.20;99.90;;;;;;5049353;28;20389;-55
2022/09/22 02:44:35;;;;;;;9.80;5.60;;;6.20;99.90;;;;;;5048592;28;20471;-55
2022/09/22 02:47:15;;;;;;;9.98;5.00;;;6.40;99.90;;;;;;5051156;28;20377;-56
2022/09/22 02:49:42;;;;;;;13.00;5.60;;;6.10;99.90;;;;;;5053397;28;20429;-56
2022/09/22 02:52:12;;;;;;;10.07;4.57;;;6.10;99.90;;;;;;5052532;28;20901;-56
2022/09/22 02:54:38;;;;;;;9.98;5.60;;;6.10;99.90;;;;;;5053505;28;20385;-54
2022/09/22 02:57:05;;;;;;;10.40;5.20;;;6.20;99.90;;;;;;5052605;28;20381;-54
2022/09/22 02:59:30;;;;;;;9.70;4.78;;;6.20;99.90;;;;;;5052918;28;20398;-53
2022/09/22 03:01:56;;;;;;;11.30;5.90;;;6.00;99.90;;;;;;5052517;28;20389;-56
2022/09/22 03:04:22;;;;;;;9.43;5.53;;;6.40;99.90;;;;;;5052941;28;20381;-56
2022/09/22 03:06:47;;;;;;;10.75;5.10;;;6.10;99.90;;;;;;5052784;28;20389;-56
2022/09/22 03:09:15;;;;;;;12.33;5.80;;;6.90;99.90;;;;;;5052405;28;20807;-56
2022/09/22 03:11:41;;;;;;;10.43;5.20;;;6.20;99.90;;;;;;5052782;28;20424;-56
2022/09/22 03:14:07;;;;;;;9.10;5.22;;;6.10;99.90;;;;;;5052479;28;20421;-56
2022/09/22 03:16:33;;;;;;;9.77;5.67;;;6.10;99.90;;;;;;5053037;28;20417;-56
2022/09/22 03:18:59;;;;;;;10.60;5.00;;;6.10;99.90;;;;;;5051806;28;20428;-56
2022/09/22 03:21:25;;;;;;;10.90;5.00;;;6.20;99.90;;;;;;5052767;28;20398;-56
2022/09/22 03:23:50;;;;;;;12.68;5.68;;;6.00;99.90;;;;;;5052506;28;20404;-56
2022/09/22 03:26:16;;;;;;;10.50;5.50;;;5.40;99.90;;;;;;5052177;28;20374;-56
2022/09/22 03:28:42;;;;;;;10.98;5.95;;;7.10;99.90;;;;;;5052512;28;20417;-55
2022/09/22 03:31:10;;;;;;;9.85;5.30;;;6.00;99.90;;;;;;5060086;28;20462;-56
2022/09/22 03:33:35;;;;;;;13.75;6.03;;;6.00;99.90;;;;;;5072801;28;20758;-56
2022/09/22 03:36:01;;;;;;;13.48;6.03;;;6.00;99.90;;;;;;5071912;28;20395;-56
2022/09/22 03:38:33;;;;;;;11.87;6.60;;;6.00;99.90;;;;;;5072684;28;20380;-53
2022/09/22 03:41:00;;;;;;;12.10;6.17;;;6.00;99.90;;;;;;5067952;28;20435;-53
2022/09/22 03:43:25;;;;;;;12.70;5.80;;;5.90;99.90;;;;;;5072345;28;20390;-56
2022/09/22 03:45:58;;;;;;;11.80;6.17;;;5.90;99.90;;;;;;5072476;28;20368;-56
2022/09/22 03:48:25;;;;;;;13.70;5.30;;;5.80;99.90;;;;;;5072271;28;20383;-56
2022/09/22 03:50:51;;;;;;;11.05;5.20;;;5.70;99.90;;;;;;5072299;28;20412;-56
2022/09/22 03:53:17;;;;;;;11.10;5.57;;;5.70;99.90;;;;;;5071760;28;20394;-56
2022/09/22 03:55:42;;;;;;;10.52;5.60;;;5.60;99.90;;;;;;5072033;28;20438;-56
2022/09/22 03:58:08;;;;;;;10.20;5.45;;;5.70;99.90;;;;;;5070523;28;20885;-55
2022/09/22 04:00:34;;;;;;;10.93;5.40;;;5.70;99.90;;;;;;5069645;28;20416;-56
2022/09/22 04:02:59;;;;;;;11.90;5.30;;;5.70;99.90;;;;;;5066825;28;20476;-56
2022/09/22 04:05:25;;;;;;;11.13;5.07;;;6.00;99.90;;;;;;5071925;28;20402;-56
2022/09/22 04:07:51;;;;;;;10.57;5.60;;;6.60;99.90;;;;;;5067801;28;20429;-56
2022/09/22 04:10:16;;;;;;;11.20;5.27;;;5.60;99.90;;;;;;5062294;28;20517;-56
2022/09/22 04:12:42;;;;;;;10.25;5.00;;;5.60;99.90;;;;;;5071702;28;20384;-56
2022/09/22 04:15:08;;;;;;;10.87;4.90;;;5.70;99.90;;;;;;5071388;28;20490;-55
2022/09/22 04:17:35;;;;;;;10.90;5.50;;;5.70;99.90;;;;;;5071797;28;20387;-56
2022/09/22 04:20:02;;;;;;;10.17;5.60;;;5.70;99.90;;;;;;5070980;28;20379;-56
2022/09/22 04:22:28;;;;;;;10.27;5.10;;;5.70;99.90;;;;;;5071850;28;20779;-56
2022/09/22 04:24:54;;;;;;;10.88;5.63;;;5.60;99.90;;;;;;5071385;28;20380;-56
2022/09/22 04:27:19;;;;;;;11.67;5.27;;;5.50;99.90;;;;;;5071123;28;20384;-56
2022/09/22 04:29:45;;;;;;;10.05;5.10;;;5.50;99.90;;;;;;5063158;28;20421;-56
2022/09/22 04:32:10;;;;;;;10.17;4.77;;;5.50;99.90;;;;;;5055858;28;20383;-56
2022/09/22 04:34:36;;;;;;;10.40;5.30;;;5.40;99.90;;;;;;5052109;28;20723;-56
2022/09/22 04:37:02;;;;;;;12.60;5.40;;;5.30;99.90;;;;;;5050696;28;20439;-57
2022/09/22 04:39:27;;;;;;;13.57;5.95;;;5.30;99.90;;;;;;5055215;28;20751;-56
2022/09/22 04:41:53;;;;;;;12.17;5.60;;;6.50;99.90;;;;;;5071177;28;20380;-56
2022/09/22 04:44:19;;;;;;;14.25;6.25;;;5.30;99.90;;;;;;5071049;28;20388;-56
2022/09/22 04:46:45;;;;;;;13.32;6.22;;;5.30;99.90;;;;;;5071623;28;20384;-56
2022/09/22 04:49:12;;;;;;;13.37;5.70;;;5.30;99.90;;;;;;5061170;28;20396;-56
2022/09/22 04:51:37;;;;;;;13.50;5.95;;;5.80;99.90;;;;;;5065572;28;20479;-56
2022/09/22 04:54:03;;;;;;;11.82;5.78;;;5.30;99.90;;;;;;5070234;28;20384;-56
2022/09/22 04:56:29;;;;;;;11.00;5.30;;;5.30;99.90;;;;;;5070105;28;20479;-56
2022/09/22 04:58:54;;;;;;;12.38;5.20;;;5.20;99.90;;;;;;5069902;28;20411;-56
2022/09/22 05:01:20;;;;;;;10.43;5.00;;;5.20;99.90;;;;;;5066363;28;20406;-56
2022/09/22 05:03:45;;;;;;;12.57;5.70;;;5.10;99.90;;;;;;5070801;28;20476;-56
2022/09/22 05:06:11;;;;;;;10.60;5.53;;;5.20;99.90;;;;;;5069319;28;20398;-56
2022/09/22 05:08:36;;;;;;;12.88;5.55;;;5.20;99.90;;;;;;5071017;28;20394;-56
2022/09/22 05:11:05;;;;;;;10.40;5.90;;;6.00;99.90;;;;;;5068976;28;20414;-56
2022/09/22 05:13:31;;;;;;;10.68;6.00;;;5.40;99.90;;;;;;5070828;28;20430;-56
2022/09/22 05:15:56;;;;;;;10.07;5.30;;;5.50;99.90;;;;;;5070173;28;20380;-56
2022/09/22 05:18:22;;;;;;;11.18;5.80;;;4.50;99.90;;;;;;5070597;28;20913;-57
2022/09/22 05:20:48;;;;;;;9.37;4.60;;;5.40;99.90;;;;;;5070491;28;20474;-57
2022/09/22 05:23:14;;;;;;;11.70;5.40;;;5.30;99.90;;;;;;5066736;28;20404;-56
2022/09/22 05:25:41;;;;;;;10.70;5.73;;;5.50;99.90;;;;;;5070600;28;20395;-57
2022/09/22 05:28:06;;;;;;;10.40;5.90;;;5.50;99.90;;;;;;5069653;28;20481;-56
2022/09/22 05:30:32;;;;;;;11.48;6.10;;;5.30;99.90;;;;;;5068106;28;20880;-56
2022/09/22 05:32:57;;;;;;;10.37;5.70;;;5.40;99.90;;;;;;5054326;28;20462;-54
2022/09/22 05:35:24;;;;;;;10.93;5.78;;;5.60;99.90;;;;;;5049597;28;20373;-55
2022/09/22 05:37:51;;;;;;;11.90;6.13;;;6.10;99.90;;;;;;5066244;28;20433;-55
2022/09/22 05:40:17;;;;;;;12.57;5.50;;;7.10;99.90;;;;;;5069199;28;21124;-57
2022/09/22 05:42:48;;;;;;;9.48;4.65;;;8.10;99.90;;;;;;5063627;28;20399;-57
2022/09/22 05:45:15;;;;;;;16.52;5.25;;;9.20;99.90;;;;;;5069098;28;21025;-54
2022/09/22 05:47:41;;;;;;;11.32;4.50;;;10.30;1.00;;;;;;5064226;28;20411;-54
2022/09/22 05:50:10;;;;;;;8.82;4.00;;;11.20;1.00;;;;;;5063586;28;20417;-55
2022/09/22 05:52:36;;;;;;;8.85;3.80;;;12.20;99.90;;;;;;5066957;28;20414;-55
2022/09/22 05:55:02;;;;;;;10.23;4.10;;;13.10;99.90;;;;;;5066019;28;20392;-55
2022/09/22 05:57:27;;;;;;;10.75;4.35;;;13.60;1.00;;;;;;5068667;28;20525;-56
2022/09/22 05:59:54;;;;;;;7.70;3.70;;;13.60;1.00;;;;;;5069120;28;20407;-56
2022/09/22 06:02:20;;;;;;;8.10;3.90;;;14.40;1.00;;;;;;5067348;28;20387;-56
2022/09/22 06:04:45;;;;;;;9.55;4.15;;;14.60;1.00;;;;;;5060230;28;20425;-57
2022/09/22 06:07:11;;;;;;;9.40;3.90;;;14.80;1.00;;;;;;5063464;28;20512;-56
2022/09/22 06:09:40;;;;;;;8.98;3.78;;;15.10;1.00;;;;;;5069238;28;20375;-57
2022/09/22 06:12:07;;;;;;;8.67;4.10;;;15.30;1.00;;;;;;5068358;28;20372;-56
2022/09/22 06:14:33;;;;;;;8.70;4.13;;;15.30;1.00;;;;;;5065950;28;20482;-56
2022/09/22 06:16:59;;;;;;;9.40;4.10;;;15.80;1.00;;;;;;5065096;28;20395;-56
2022/09/22 06:19:27;;;;;;;8.77;4.37;;;16.80;99.90;;;;;;5062184;28;20399;-56
2022/09/22 06:21:53;;;;;;;9.23;4.63;;;17.30;99.90;;;;;;5063012;28;20411;-56
2022/09/22 06:24:19;;;;;;;9.83;4.70;;;17.40;99.90;;;;;;5065724;28;21036;-56
2022/09/22 06:26:45;;;;;;;10.47;4.10;;;17.90;99.90;;;;;;5065390;28;20884;-56
2022/09/22 06:29:10;;;;;;;9.88;4.30;;;18.60;99.90;;;;;;5060986;28;20416;-56
2022/09/22 06:31:38;;;;;;;8.90;4.30;;;19.10;99.90;;;;;;5067913;28;20514;-56
2022/09/22 06:34:04;;;;;;;8.65;4.38;;;19.70;99.90;;;;;;5047401;28;20851;-56
2022/09/22 06:36:30;;;;;;;8.70;4.90;;;20.30;99.90;;;;;;5067628;28;20481;-57
2022/09/22 06:38:57;;;;;;;8.60;6.05;;;21.20;99.90;;;;;;5060999;28;20393;-56
2022/09/22 06:41:24;;;;;;;9.27;6.47;;;21.80;99.90;;;;;;5064895;28;20400;-56
2022/09/22 06:43:52;;;;;;;8.73;5.80;;;21.40;99.90;;;;;;5067056;28;20703;-56
2022/09/22 06:46:19;;;;;;;10.93;5.60;;;19.90;99.90;;;;;;5065373;28;20403;-57
2022/09/22 06:48:49;;;;;;;9.02;5.97;;;19.20;99.90;;;;;;5065902;28;20470;-64
2022/09/22 06:51:15;;;;;;;16.20;6.50;;;19.00;99.90;;;;;;5058680;28;20403;-64
2022/09/22 06:53:40;;;;;;;9.52;6.22;;;19.80;99.90;;;;;;5066836;28;20377;-64
2022/09/22 06:56:07;;;;;;;12.60;6.70;;;19.60;99.90;;;;;;5067950;28;20383;-64
2022/09/22 06:58:33;;;;;;;10.00;6.90;;;19.90;99.90;;;;;;5066735;28;20399;-64
2022/09/22 07:01:05;;;;;;;10.32;7.50;;;19.70;99.90;;;;;;5065445;28;20431;-60
2022/09/22 07:03:32;;;;;;;10.75;6.45;;;19.10;99.90;;;;;;5065232;28;20399;-62
2022/09/22 07:05:59;;;;;;;11.03;7.87;;;19.20;99.90;;;;;;5063516;28;20748;-60
2022/09/22 07:08:27;;;;;;;10.20;8.10;;;19.50;99.90;;;;;;5066105;28;20445;-63
2022/09/22 07:11:01;;;;;;;10.65;7.60;;;19.20;99.90;;;;;;5068737;28;20449;-56
2022/09/22 07:13:29;;;;;;;9.75;7.00;;;19.20;99.90;;;;;;5068184;28;20422;-56
2022/09/22 07:16:03;;;;;;;11.90;7.00;;;19.90;99.90;;;;;;5065351;28;20414;-56
2022/09/22 07:18:29;;;;;;;11.38;6.90;;;19.80;99.90;;;;;;5066248;28;20438;-56
2022/09/22 07:21:23;;;;;;;11.10;7.40;;;19.90;99.90;;;;;;5068494;28;20387;-56
2022/09/22 07:23:50;;;;;;;12.32;8.70;;;20.60;99.90;;;;;;5061385;28;20457;-57
2022/09/22 07:26:23;;;;;;;10.65;7.78;;;21.60;99.90;;;;;;5067692;28;20376;-57
2022/09/22 07:28:52;;;;;;;10.98;8.00;;;22.80;99.90;;;;;;5066700;28;20485;-57
2022/09/22 07:31:18;;;;;;;13.35;9.60;;;22.90;99.90;;;;;;5048943;28;20451;-64
2022/09/22 07:33:45;;;;;;;10.32;8.68;;;22.70;99.90;;;;;;5070473;28;20430;-56
2022/09/22 07:36:13;;;;;;;10.30;7.70;;;22.40;99.90;;;;;;5071212;28;20384;-56
2022/09/22 07:38:43;;;;;;;10.87;8.20;;;22.90;99.90;;;;;;5072048;28;20443;-56
2022/09/22 07:41:16;;;;;;;10.55;9.25;;;23.10;99.90;;;;;;5071104;28;20398;-57
2022/09/22 07:43:42;;;;;;;16.30;14.85;;;;;;;;;;5071884;28;20803;-56
2022/09/22 07:46:08;;;;;;;10.02;9.02;;;25.00;99.90;;;;;;5071097;28;20376;-57
2022/09/22 07:48:45;;;;;;;12.07;5.60;;;25.60;99.90;;;;;;5072064;28;20737;-57
2022/09/22 07:51:12;;;;;;;9.10;3.90;;;27.00;99.90;;;;;;5070909;28;20457;-57
2022/09/22 07:53:39;;;;;;;9.83;5.13;;;26.70;99.90;;;;;;5053735;28;20402;-57
2022/09/22 07:56:13;;;;;;;10.48;9.48;;;26.00;99.90;;;;;;5070862;28;20388;-57
2022/09/22 07:58:42;;;;;;;8.57;7.53;;;26.50;99.90;;;;;;5069743;28;20865;-57
2022/09/22 08:01:08;;;;;;;10.00;7.47;;;27.80;99.90;;;;;;5071036;28;20538;-57
2022/09/22 08:03:36;;;;;;;8.10;7.30;;;27.90;99.90;;;;;;5069129;28;20780;-57
2022/09/22 08:06:10;;;;;;;8.10;5.95;;;27.80;99.90;;;;;;5070973;28;20382;-58
2022/09/22 08:08:45;;;;;;;8.20;6.45;;;27.50;99.90;;;;;;5068943;28;20415;-57
2022/09/22 08:11:18;;;;;;;8.93;7.43;;;26.80;99.90;;;;;;5070663;28;20967;-57
2022/09/22 08:13:56;;;;;;;8.65;7.72;;;26.50;99.90;;;;;;5071654;28;20384;-57
2022/09/22 08:16:27;;;;;;;9.45;8.30;;;27.00;99.90;;;;;;5066969;28;20395;-57
2022/09/22 08:18:54;;;;;;;7.85;7.03;;;27.00;99.90;;;;;;5068949;28;20380;-57
2022/09/22 08:21:21;;;;;;;8.30;6.05;;;26.40;99.90;;;;;;5068980;28;20387;-57
2022/09/22 08:23:52;;;;;;;8.30;6.85;;;26.30;99.90;;;;;;5069427;28;20421;-57
2022/09/22 08:26:21;;;;;;;8.65;7.10;;;26.80;99.90;;;;;;5066067;28;20375;-57
2022/09/22 08:28:54;;;;;;;10.80;8.02;;;26.30;99.90;;;;;;5068788;28;20457;-57
2022/09/22 08:31:21;;;;;;;8.35;6.68;;;27.30;99.90;;;;;;5066597;28;20419;-57
2022/09/22 08:33:48;;;;;;;7.88;6.35;;;27.70;99.90;;;;;;5052380;28;20427;-57
2022/09/22 08:36:15;;;;;;;9.32;6.55;;;27.20;99.90;;;;;;5070366;28;20481;-57
2022/09/22 08:38:42;;;;;;;9.13;7.10;;;27.10;99.90;;;;;;5070871;28;20388;-57
2022/09/22 08:41:26;;;;;;;9.85;7.30;;;26.80;99.90;;;;;;5067682;28;20744;-57
2022/09/22 08:44:07;;;;;;;9.82;7.10;;;27.10;99.90;;;;;;5068777;28;20430;-57
2022/09/22 08:46:34;;;;;;;7.43;5.72;;;26.90;99.90;;;;;;5069078;28;20376;-57
2022/09/22 08:52:06;;;;;;;10.82;6.50;;;26.80;99.90;;;;;;5068979;28;20442;-57
2022/09/22 08:54:33;;;;;;;8.68;5.47;;;27.40;99.90;;;;;;5068691;28;20419;-57
2022/09/22 08:57:37;;;;;;;8.73;7.40;;;27.60;99.90;;;;;;5070268;28;20391;-57
2022/09/22 09:00:06;;;;;;;9.07;7.72;;;27.90;99.90;;;;;;5069231;28;20403;-57
2022/09/22 09:02:43;;;;;;;8.63;7.03;;;27.60;99.90;;;;;;5066652;28;20490;-57
2022/09/22 09:05:46;;;;;;;8.27;7.10;;;26.90;99.90;;;;;;5061613;28;20730;-57
2022/09/22 09:08:43;;;;;;;7.50;6.15;;;27.70;99.90;;;;;;5064807;28;20863;-57
2022/09/22 09:11:43;;;;;;;7.70;5.97;;;27.70;99.90;;;;;;5062258;28;20408;-58
2022/09/22 09:14:46;;;;;;;8.02;5.90;;;26.70;99.90;;;;;;5065506;28;20916;-57
2022/09/22 09:17:26;;;;;;;7.43;6.47;;;27.10;99.90;;;;;;5069016;28;20387;-57
2022/09/22 09:20:11;;;;;;;7.10;6.37;;;27.40;99.90;;;;;;5070757;28;20420;-57
2022/09/22 09:22:42;;;;;;;7.75;5.88;;;28.00;99.90;;;;;;5070446;28;20728;-57
2022/09/22 09:25:35;;;;;;;8.37;5.83;;;28.20;99.90;;;;;;5066784;28;20487;-57
2022/09/22 09:28:06;;;;;;;7.93;5.90;;;28.20;99.90;;;;;;5065851;28;20379;-57
2022/09/22 09:30:39;;;;;;;6.53;5.70;;;27.80;99.90;;;;;;5070017;28;20420;-57
2022/09/22 09:33:17;;;;;;;8.30;6.80;;;27.20;99.90;;;;;;5065280;28;20813;-57
2022/09/22 09:35:45;;;;;;;8.07;5.60;;;27.20;99.90;;;;;;5066081;28;20405;-57
2022/09/22 09:38:14;;;;;;;8.33;6.70;;;27.20;99.90;;;;;;5068364;28;20457;-57
2022/09/22 09:40:40;;;;;;;10.88;7.70;;;27.70;99.90;;;;;;5069707;28;20386;-58
2022/09/22 09:43:06;;;;;;;7.40;6.33;;;28.20;99.90;;;;;;5068669;28;20380;-57
2022/09/22 09:45:43;;;;;;;8.52;5.97;;;26.70;99.90;;;;;;5069757;28;20859;-57
2022/09/22 09:48:33;;;;;;;7.47;6.28;;;25.80;99.90;;;;;;5066362;28;20402;-57
2022/09/22 09:51:04;;;;;;;8.15;5.35;;;26.70;99.90;;;;;;5068028;28;20888;-57
2022/09/22 09:53:38;;;;;;;7.70;5.47;;;26.80;99.90;;;;;;5069600;28;20412;-57
2022/09/22 09:56:22;;;;;;;7.00;5.68;;;27.30;99.90;;;;;;5067340;28;20405;-57
2022/09/22 10:01:56;;;;;;;6.60;5.10;;;27.50;99.90;;;;;;5069211;28;20390;-58
2022/09/22 10:04:27;;;;;;;6.65;4.53;;;27.30;99.90;;;;;;5068922;28;20384;-57
2022/09/22 10:06:55;;;;;;;6.20;4.63;;;27.60;99.90;;;;;;5061773;28;20405;-58
2022/09/22 10:09:26;;;;;;;7.00;4.80;;;27.90;99.90;;;;;;5064290;28;20387;-57
2022/09/22 10:11:59;;;;;;;7.20;4.90;;;26.60;99.90;;;;;;5067690;28;20880;-57
2022/09/22 10:14:33;;;;;;;6.20;4.60;;;26.60;99.90;;;;;;5066324;28;20391;-57
2022/09/22 10:16:59;;;;;;;6.10;4.80;;;27.20;99.90;;;;;;5068978;28;20407;-58
2022/09/22 10:19:30;;;;;;;6.20;4.87;;;27.20;99.90;;;;;;5068883;28;20398;-58
2022/09/22 10:22:16;;;;;;;7.20;4.80;;;27.80;99.90;;;;;;5069423;28;20384;-58
2022/09/22 10:24:56;;;;;;;7.23;4.60;;;28.10;99.90;;;;;;5068738;28;20392;-57
2022/09/22 10:27:23;;;;;;;6.45;4.70;;;27.80;99.90;;;;;;5068685;28;20372;-57
2022/09/22 10:30:20;;;;;;;6.50;5.10;;;27.30;99.90;;;;;;5068606;28;21157;-57
2022/09/22 10:33:04;;;;;;;6.17;4.80;;;27.30;99.90;;;;;;5067163;28;20395;-57
2022/09/22 10:35:32;;;;;;;6.10;5.00;;;26.80;99.90;;;;;;5066501;28;20468;-57
2022/09/22 10:38:15;;;;;;;6.70;5.30;;;25.90;99.90;;;;;;5067405;28;20388;-57
2022/09/22 10:40:44;;;;;;;6.35;5.25;;;25.00;99.90;;;;;;5068470;28;20376;-57
2022/09/22 10:43:39;;;;;;;6.20;4.60;;;24.50;99.90;;;;;;5068185;28;20480;-57
2022/09/22 10:46:34;;;;;;;6.93;4.78;;;24.60;99.90;;;;;;5065842;28;20380;-57
2022/09/22 10:49:27;;;;;;;6.95;4.70;;;24.30;99.90;;;;;;4978300;28;20456;-57
2022/09/22 10:51:59;;;;;;;6.43;4.70;;;24.70;99.90;;;;;;5067621;28;20433;-57
2022/09/22 10:54:52;;;;;;;6.50;4.60;;;24.80;99.90;;;;;;5065647;28;20380;-57
2022/09/22 10:57:46;;;;;;;5.82;4.40;;;25.30;99.90;;;;;;5017348;28;20380;-57
2022/09/22 11:00:18;;;;;;;5.80;4.15;;;25.90;99.90;;;;;;5027896;28;20486;-57
2022/09/22 11:03:19;;;;;;;7.00;4.80;;;26.00;99.90;;;;;;5065897;28;20388;-57
2022/09/22 11:12:52;;;;;;;7.10;3.92;;;24.40;99.90;;;;;;5070006;28;20429;-57
2022/09/22 11:15:23;;;;;;;6.38;4.00;;;24.20;99.90;;;;;;5068407;28;20393;-58
2022/09/22 11:18:25;;;;;;;13.15;9.15;;;23.80;99.90;;;;;;5065478;28;20779;-57
2022/09/22 11:21:22;;;;;;;7.15;4.80;;;23.50;99.90;;;;;;5066971;28;20399;-57
2022/09/22 11:24:09;;;;;;;6.20;4.20;;;23.40;99.90;;;;;;5071790;28;20951;-57
2022/09/22 11:26:38;;;;;;;6.07;4.70;;;22.80;99.90;;;;;;5072239;28;20379;-57
2022/09/22 11:29:19;;;;;;;7.30;4.50;;;22.60;99.90;;;;;;5071142;28;20411;-57
2022/09/22 11:32:06;;;;;;;6.50;4.60;;;22.40;99.90;;;;;;5071340;28;20411;-57
2022/09/22 11:34:54;;;;;;;8.15;4.50;;;21.50;99.90;;;;;;5056664;28;20462;-56
2022/09/22 11:37:48;;;;;;;6.57;4.50;;;20.80;99.90;;;;;;5071779;28;20465;-56
2022/09/22 11:40:20;;;;;;;6.10;4.37;;;20.50;99.90;;;;;;5070219;28;20380;-57
2022/09/22 11:43:09;;;;;;;7.28;3.75;;;20.60;99.90;;;;;;5069278;28;20403;-57
2022/09/22 11:45:59;;;;;;;6.00;4.05;;;21.00;99.90;;;;;;5039876;28;20444;-57
2022/09/22 11:48:43;;;;;;;6.50;3.90;;;21.30;99.90;;;;;;5066576;28;20942;-57
2022/09/22 11:51:35;;;;;;;5.60;3.80;;;21.30;99.90;;;;;;5064025;28;20419;-57
2022/09/22 11:54:28;;;;;;;6.53;3.40;;;21.10;99.90;;;;;;5071287;28;20407;-57
2022/09/22 11:56:58;;;;;;;5.90;4.00;;;21.40;99.90;;;;;;5069978;28;20752;-57
2022/09/22 11:59:27;;;;;;;5.78;3.80;;;21.50;99.90;;;;;;5071000;28;20931;-57
2022/09/22 12:01:56;;;;;;;6.70;4.00;;;21.30;99.90;;;;;;5071863;28;20392;-57
2022/09/22 12:04:48;;;;;;;6.28;3.70;;;21.20;99.90;;;;;;5070832;28;20392;-57
2022/09/22 12:07:25;;;;;;;5.72;3.60;;;21.10;99.90;;;;;;5068903;28;20449;-56
2022/09/22 12:10:01;;;;;;;7.00;4.30;;;20.90;99.90;;;;;;5051714;28;20398;-56
2022/09/22 12:12:30;;;;;;;6.47;4.00;;;20.60;99.90;;;;;;5070922;28;20410;-57
2022/09/22 12:15:29;;;;;;;7.32;4.00;;;20.50;99.90;;;;;;5071638;28;20394;-56
2022/09/22 12:18:11;;;;;;;5.50;4.00;;;20.90;99.90;;;;;;5023375;28;20392;-56
2022/09/22 12:20:41;;;;;;;5.75;3.50;;;20.50;99.90;;;;;;5060005;28;20779;-57
2022/09/22 12:23:35;;;;;;;5.70;3.70;;;20.60;99.90;;;;;;5068051;28;20402;-56
2022/09/22 12:26:14;;;;;;;5.47;3.30;;;20.40;99.90;;;;;;5065077;28;20389;-57
2022/09/22 12:28:47;;;;;;;6.80;3.53;;;20.70;99.90;;;;;;5073389;28;20395;-56
2022/09/22 12:31:15;;;;;;;6.00;3.90;;;20.80;99.90;;;;;;5085760;28;20510;-61
2022/09/22 12:33:47;;;;;;;5.80;3.80;;;20.80;99.90;;;;;;5069715;28;20861;-60
2022/09/22 12:36:13;;;;;;;6.90;3.92;;;20.30;99.90;;;;;;5061718;28;20408;-61
2022/09/22 12:38:40;;;;;;;5.70;3.80;;;20.20;99.90;;;;;;5065726;28;20402;-61
2022/09/22 12:41:06;;;;;;;6.00;4.10;;;20.30;99.90;;;;;;5066564;28;20407;-59
2022/09/22 12:43:33;;;;;;;5.60;3.90;;;20.50;99.90;;;;;;5067258;28;20420;-61
2022/09/22 12:46:04;;;;;;;5.88;4.00;;;20.90;99.90;;;;;;5066113;28;20726;-61
2022/09/22 12:48:36;;;;;;;6.20;3.70;;;21.10;99.90;;;;;;5066493;28;20464;-61
2022/09/22 12:51:23;;;;;;;6.13;3.90;;;21.40;99.90;;;;;;5070550;28;20827;-60
2022/09/22 12:53:49;;;;;;;6.95;4.18;;;21.00;99.90;;;;;;5070484;28;20391;-60
2022/09/22 12:56:45;;;;;;;6.03;4.10;;;20.70;99.90;;;;;;5070068;28;20387;-60
2022/09/22 12:59:36;;;;;;;6.30;4.07;;;20.70;99.90;;;;;;5070160;28;20915;-60
2022/09/22 13:02:12;;;;;;;6.10;4.03;;;20.70;99.90;;;;;;5069218;28;20396;-60
2022/09/22 13:04:38;;;;;;;6.70;3.90;;;20.80;99.90;;;;;;5069760;28;20475;-60
2022/09/22 13:07:30;;;;;;;6.70;4.40;;;20.90;99.90;;;;;;5066569;28;20400;-60
2022/09/22 13:10:20;;;;;;;6.43;4.00;;;20.80;99.90;;;;;;5065046;28;20924;-60
2022/09/22 13:15:45;;;;;;;6.03;4.22;;;21.00;99.90;;;;;;5069497;28;20384;-62
2022/09/22 13:18:32;;;;;;;5.57;4.00;;;21.20;99.90;;;;;;5068712;28;20495;-61
2022/09/22 13:21:00;;;;;;;5.80;4.20;;;21.30;99.90;;;;;;5066320;28;20495;-61
2022/09/22 13:23:26;;;;;;;6.63;4.68;;;21.70;99.90;;;;;;5069253;28;21036;-60
2022/09/22 13:25:52;;;;;;;6.20;4.50;;;21.60;99.90;;;;;;5070073;28;20402;-60
2022/09/22 13:28:19;;;;;;;6.40;4.40;;;21.20;99.90;;;;;;5069443;28;20388;-60
2022/09/22 13:30:47;;;;;;;7.32;4.43;;;21.00;99.90;;;;;;5068289;28;20886;-60